createdAt,value
2022-11-29T00:08:51.503Z,46.54
2022-11-29T00:18:56.555Z,46.85
2022-11-29T00:29:01.686Z,46.73
2022-11-29T00:39:07.254Z,46.76
2022-11-29T00:49:12.500Z,46.79
2022-11-29T00:59:17.875Z,46.84
2022-11-29T01:09:22.979Z,46.74
2022-11-29T01:19:28.254Z,46.93
2022-11-29T01:29:33.545Z,46.75
2022-11-29T01:39:38.854Z,47.01
2022-11-29T01:49:43.847Z,47.05
2022-11-29T01:59:49.082Z,46.97
2022-11-29T02:09:54.449Z,47.09
2022-11-29T02:19:59.559Z,47.02
2022-11-29T02:30:05.040Z,47.20
2022-11-29T02:40:10.144Z,47.11
2022-11-29T02:50:15.539Z,47.07
2022-11-29T03:00:20.897Z,47.03
2022-11-29T03:10:25.683Z,47.06
2022-11-29T03:20:31.202Z,47.07
2022-11-29T03:30:36.444Z,47.06
2022-11-29T03:40:41.909Z,47.25
2022-11-29T03:50:47.462Z,47.12
2022-11-29T04:00:52.594Z,47.26
2022-11-29T04:10:57.886Z,47.39
2022-11-29T04:21:03.161Z,47.29
2022-11-29T04:31:08.346Z,47.20
2022-11-29T04:41:13.553Z,47.22
2022-11-29T04:51:18.517Z,47.24
2022-11-29T05:01:23.891Z,47.40
2022-11-29T05:11:29.219Z,47.38
2022-11-29T05:21:34.484Z,46.70
2022-11-29T05:31:39.493Z,47.25
2022-11-29T05:41:45.282Z,47.27
2022-11-29T05:51:50.919Z,47.43
2022-11-29T06:01:56.099Z,47.43
2022-11-29T06:12:01.147Z,47.33
2022-11-29T06:22:06.024Z,47.30
2022-11-29T06:32:11.369Z,47.19
2022-11-29T06:42:16.728Z,47.42
2022-11-29T06:52:21.929Z,47.17
2022-11-29T07:02:27.234Z,47.15
2022-11-29T07:12:32.620Z,47.14
2022-11-29T07:22:38.234Z,47.01
2022-11-29T07:32:48.789Z,46.89
2022-11-29T07:42:54.066Z,47.04
2022-11-29T07:52:59.072Z,47.00
2022-11-29T08:03:04.368Z,47.04
2022-11-29T08:13:09.990Z,47.11
2022-11-29T08:23:15.162Z,47.08
2022-11-29T08:33:20.309Z,47.35
2022-11-29T08:43:25.770Z,47.06
2022-11-29T08:53:32.943Z,47.17
2022-11-29T09:03:38.271Z,46.78
2022-11-29T09:13:43.602Z,47.01
2022-11-29T09:23:49.064Z,47.04
2022-11-29T09:33:54.595Z,46.91
2022-11-29T09:43:59.781Z,47.03
2022-11-29T09:54:05.500Z,46.40
2022-11-29T10:04:10.975Z,45.96
2022-11-29T10:14:16.348Z,46.22
2022-11-29T10:24:21.619Z,46.54
2022-11-29T10:34:26.965Z,46.14
2022-11-29T10:44:32.969Z,46.48
2022-11-29T10:54:38.128Z,46.60
2022-11-29T11:04:43.606Z,46.63
2022-11-29T11:14:49.459Z,46.46
2022-11-29T11:24:54.897Z,46.20
2022-11-29T11:35:00.092Z,45.86
2022-11-29T11:45:05.328Z,46.71
2022-11-29T11:55:10.533Z,46.38
2022-11-29T12:05:15.627Z,46.36
2022-11-29T12:15:21.156Z,46.22
2022-11-29T12:25:26.509Z,45.81
2022-11-29T12:35:32.217Z,45.64
2022-11-29T12:47:13.189Z,45.94
2022-11-29T12:57:07.026Z,45.78
2022-11-29T13:07:12.503Z,45.61
2022-11-29T13:17:17.545Z,45.44
2022-11-29T13:27:23.020Z,46.16
2022-11-29T13:37:28.246Z,45.55
2022-11-29T13:47:33.458Z,45.42
2022-11-29T13:58:00.703Z,45.31
2022-11-29T14:07:49.187Z,45.19
2022-11-29T14:17:54.539Z,45.58
2022-11-29T14:27:59.927Z,45.16
2022-11-29T14:38:05.245Z,44.96
2022-11-29T14:48:10.760Z,44.69
2022-11-29T14:58:15.687Z,44.82
2022-11-29T15:08:21.063Z,44.72
2022-11-29T15:19:45.711Z,45.33
2022-11-29T15:29:50.335Z,45.50
2022-11-29T15:39:55.653Z,46.20
2022-11-29T15:50:00.836Z,46.70
2022-11-29T16:00:06.447Z,46.90
2022-11-29T16:10:11.748Z,45.97
2022-11-29T16:20:17.106Z,46.95
2022-11-29T16:30:22.512Z,47.98
2022-11-29T16:40:27.816Z,46.69
2022-11-29T16:50:34.516Z,46.43
2022-11-29T17:00:39.638Z,48.16
2022-11-29T17:10:45.336Z,48.12
2022-11-29T17:20:50.610Z,47.56
2022-11-29T17:30:55.754Z,47.09
2022-11-29T17:41:01.304Z,47.53
2022-11-29T17:51:17.229Z,49.49
2022-11-29T18:01:17.005Z,47.85
2022-11-29T18:11:22.513Z,47.85
2022-11-29T18:22:46.891Z,47.70
2022-11-29T18:32:51.419Z,47.63
2022-11-29T18:42:56.917Z,47.63
2022-11-29T18:53:02.079Z,47.49
2022-11-29T19:03:06.951Z,47.43
2022-11-29T19:13:12.052Z,47.52
2022-11-29T19:23:17.344Z,47.44
2022-11-29T19:33:22.029Z,47.28
2022-11-29T19:43:27.159Z,47.23
2022-11-29T19:53:32.218Z,47.63
2022-11-29T20:03:37.369Z,47.89
2022-11-29T20:13:42.270Z,47.77
2022-11-29T20:23:47.239Z,47.69
2022-11-29T20:33:52.415Z,47.81
2022-11-29T20:43:57.586Z,47.95
2022-11-29T20:54:02.566Z,47.88
2022-11-29T21:04:07.397Z,47.83
2022-11-29T21:14:12.499Z,47.89
2022-11-29T21:24:17.444Z,47.79
2022-11-29T21:34:22.328Z,47.75
2022-11-29T21:44:27.585Z,47.64
2022-11-29T21:54:33.084Z,47.85
2022-11-29T22:04:38.401Z,47.76
2022-11-29T22:14:44.078Z,49.00
2022-11-29T22:24:50.251Z,49.05
2022-11-29T22:34:55.294Z,48.86
2022-11-29T22:45:00.436Z,49.10
2022-11-29T22:55:05.964Z,48.80
2022-11-29T23:05:11.261Z,48.98
2022-11-29T23:15:16.465Z,48.82
2022-11-29T23:25:21.696Z,48.76
2022-11-29T23:35:26.786Z,47.97
2022-11-29T23:45:32.011Z,47.51
2022-11-29T23:55:37.510Z,47.55
